createdAt,value
2019-03-10T00:00:49.914Z,11.93
2019-03-10T00:03:23.144Z,11.93
2019-03-10T00:05:54.745Z,11.90
2019-03-10T00:08:26.314Z,11.95
2019-03-10T00:10:57.757Z,11.93
2019-03-10T00:13:29.494Z,11.93
2019-03-10T00:16:01.109Z,11.88
2019-03-10T00:18:32.798Z,11.92
2019-03-10T00:21:04.437Z,11.92
2019-03-10T00:23:36.194Z,11.99
2019-03-10T00:26:07.844Z,11.99
2019-03-10T00:28:39.528Z,12.02
2019-03-10T00:31:11.119Z,12.02
2019-03-10T00:33:42.738Z,12.02
2019-03-10T00:36:14.295Z,11.95
2019-03-10T00:39:38.377Z,11.90
2019-03-10T00:43:11.407Z,11.97
2019-03-10T00:46:17.565Z,11.94
2019-03-10T00:49:47.323Z,11.79
2019-03-10T00:52:23.078Z,11.79
2019-03-10T00:54:54.835Z,11.75
2019-03-10T00:57:26.467Z,11.78
2019-03-10T01:00:00.478Z,11.84
2019-03-10T01:02:31.486Z,11.89
2019-03-10T01:05:03.126Z,11.87
2019-03-10T01:07:34.726Z,11.87
2019-03-10T01:10:06.747Z,11.87
2019-03-10T01:12:38.494Z,11.75
2019-03-10T01:15:11.626Z,11.74
2019-03-10T01:17:43.454Z,11.74
2019-03-10T01:20:15.483Z,11.75
2019-03-10T01:22:47.277Z,11.77
2019-03-10T01:25:19.067Z,11.80
2019-03-10T01:27:50.796Z,11.92
2019-03-10T01:30:22.592Z,11.93
2019-03-10T01:33:27.247Z,12.01
2019-03-10T01:35:58.954Z,12.04
2019-03-10T01:38:30.727Z,12.07
2019-03-10T01:41:02.437Z,12.05
2019-03-10T01:43:34.157Z,12.06
2019-03-10T01:46:05.646Z,12.08
2019-03-10T01:48:37.366Z,12.12
2019-03-10T01:51:09.035Z,12.11
2019-03-10T01:53:42.981Z,12.13
2019-03-10T01:56:14.635Z,12.11
2019-03-10T01:58:46.427Z,12.02
2019-03-10T02:01:18.103Z,12.06
2019-03-10T02:03:49.790Z,12.00
2019-03-10T02:06:21.492Z,12.01
2019-03-10T02:08:53.112Z,12.02
2019-03-10T02:11:24.832Z,11.97
2019-03-10T02:13:56.383Z,11.99
2019-03-10T02:16:28.030Z,12.01
2019-03-10T02:18:59.647Z,12.04
2019-03-10T02:21:33.050Z,11.97
2019-03-10T02:24:04.630Z,12.06
2019-03-10T02:26:36.380Z,11.97
2019-03-10T02:29:08.048Z,11.97
2019-03-10T02:32:05.418Z,11.90
2019-03-10T02:34:47.939Z,11.93
2019-03-10T02:37:19.650Z,11.96
2019-03-10T02:39:51.428Z,11.92
2019-03-10T02:42:23.247Z,11.87
2019-03-10T02:44:54.954Z,11.80
2019-03-10T02:47:26.523Z,11.77
2019-03-10T02:49:58.010Z,11.77
2019-03-10T02:52:29.744Z,11.76
2019-03-10T02:55:01.358Z,11.71
2019-03-10T02:57:33.389Z,11.65
2019-03-10T03:00:06.630Z,11.59
2019-03-10T03:02:38.429Z,11.56
2019-03-10T03:05:11.594Z,11.56
2019-03-10T03:07:43.417Z,11.56
2019-03-10T03:10:16.277Z,11.57
2019-03-10T03:12:48.164Z,11.50
2019-03-10T03:15:19.627Z,11.48
2019-03-10T03:17:51.471Z,11.44
2019-03-10T03:20:22.981Z,11.35
2019-03-10T03:22:54.732Z,11.35
2019-03-10T03:25:26.522Z,11.36
2019-03-10T03:27:58.159Z,11.38
2019-03-10T03:30:29.949Z,11.36
2019-03-10T03:33:01.849Z,11.36
2019-03-10T03:35:53.873Z,11.39
2019-03-10T03:38:37.787Z,11.34
2019-03-10T03:41:12.573Z,11.23
2019-03-10T03:43:44.279Z,11.23
2019-03-10T03:46:16.128Z,11.23
2019-03-10T03:48:47.782Z,11.16
2019-03-10T03:51:19.479Z,11.16
2019-03-10T03:53:51.135Z,11.20
2019-03-10T03:56:22.842Z,11.14
2019-03-10T03:58:54.568Z,10.88
2019-03-10T04:01:33.125Z,10.90
2019-03-10T04:04:06.364Z,10.83
2019-03-10T04:06:38.103Z,10.83
2019-03-10T04:09:10.844Z,10.81
2019-03-10T04:11:42.632Z,10.73
2019-03-10T04:14:14.481Z,10.71
2019-03-10T04:16:46.914Z,10.72
2019-03-10T04:19:20.331Z,10.69
2019-03-10T04:22:07.043Z,10.65
2019-03-10T04:24:38.708Z,10.64
2019-03-10T04:27:10.310Z,10.59
2019-03-10T04:29:42.103Z,10.59
2019-03-10T04:32:13.839Z,10.68
2019-03-10T04:34:46.866Z,10.78
2019-03-10T04:37:18.650Z,10.85
2019-03-10T04:39:50.379Z,10.99
2019-03-10T04:42:21.925Z,10.99
2019-03-10T04:44:53.585Z,11.01
2019-03-10T04:47:25.175Z,11.07
2019-03-10T04:49:56.859Z,11.02
2019-03-10T04:52:28.590Z,11.07
2019-03-10T04:55:07.033Z,11.11
2019-03-10T04:57:40.291Z,11.08
2019-03-10T05:00:12.012Z,11.07
2019-03-10T05:02:43.698Z,11.07
2019-03-10T05:05:15.571Z,11.07
2019-03-10T05:07:47.390Z,11.11
2019-03-10T05:10:19.105Z,11.12
2019-03-10T05:12:50.820Z,11.14
2019-03-10T05:15:22.313Z,11.15
2019-03-10T05:17:54.017Z,11.18
2019-03-10T05:20:25.690Z,11.23
2019-03-10T05:23:40.593Z,11.35
2019-03-10T05:26:12.549Z,11.48
2019-03-10T05:28:46.263Z,11.47
2019-03-10T05:31:18.120Z,11.49
2019-03-10T05:33:49.670Z,11.58
2019-03-10T05:36:21.465Z,11.69
2019-03-10T05:38:53.148Z,11.82
2019-03-10T05:41:24.825Z,11.98
2019-03-10T05:43:58.763Z,12.14
2019-03-10T05:46:30.131Z,12.28
2019-03-10T05:49:01.802Z,12.47
2019-03-10T05:51:33.670Z,12.58
2019-03-10T05:54:06.969Z,12.67
2019-03-10T05:56:41.391Z,12.76
2019-03-10T05:59:13.198Z,12.92
2019-03-10T06:01:49.210Z,12.94
2019-03-10T06:04:23.232Z,12.96
2019-03-10T06:06:54.928Z,12.93
2019-03-10T06:09:26.553Z,12.92
2019-03-10T06:11:58.449Z,12.94
2019-03-10T06:14:31.138Z,12.99
2019-03-10T06:17:02.844Z,13.02
2019-03-10T06:19:34.522Z,12.95
2019-03-10T06:22:15.190Z,12.94
2019-03-10T06:24:46.803Z,12.77
2019-03-10T06:27:18.580Z,13.03
2019-03-10T06:30:02.974Z,13.16
2019-03-10T06:32:43.102Z,13.35
2019-03-10T06:35:14.672Z,13.58
2019-03-10T06:37:46.264Z,13.81
2019-03-10T06:40:17.972Z,13.98
2019-03-10T06:42:49.947Z,14.11
2019-03-10T06:45:21.603Z,14.18
2019-03-10T06:48:00.021Z,14.26
2019-03-10T06:50:32.723Z,14.29
2019-03-10T06:53:04.247Z,14.36
2019-03-10T06:55:36.023Z,14.39
2019-03-10T06:58:15.964Z,14.41
2019-03-10T07:00:50.758Z,14.50
2019-03-10T07:03:24.371Z,14.56
2019-03-10T07:05:58.465Z,14.62
2019-03-10T07:08:36.588Z,14.75
2019-03-10T07:11:35.302Z,14.78
2019-03-10T07:14:10.578Z,14.78
2019-03-10T07:17:29.961Z,14.82
2019-03-10T07:20:03.112Z,14.87
2019-03-10T07:22:36.044Z,15.02
2019-03-10T07:25:08.323Z,15.14
2019-03-10T07:28:01.321Z,15.23
2019-03-10T07:30:43.488Z,15.30
2019-03-10T07:33:39.677Z,15.34
2019-03-10T07:36:28.644Z,15.45
2019-03-10T07:39:28.199Z,15.50
2019-03-10T07:42:17.082Z,15.52
2019-03-10T07:44:55.022Z,15.53
2019-03-10T07:47:48.467Z,15.44
2019-03-10T07:50:39.254Z,15.44
2019-03-10T07:53:25.229Z,15.57
2019-03-10T07:56:14.026Z,15.65
2019-03-10T07:58:59.293Z,15.76
2019-03-10T08:01:55.002Z,15.64
2019-03-10T08:04:35.890Z,15.67
2019-03-10T08:07:29.448Z,15.82
2019-03-10T08:10:17.054Z,15.87
2019-03-10T08:13:10.224Z,15.94
2019-03-10T08:16:06.675Z,15.97
2019-03-10T08:18:43.885Z,16.05
2019-03-10T08:21:37.293Z,15.89
2019-03-10T08:24:35.667Z,15.85
2019-03-10T08:27:24.973Z,15.91
2019-03-10T08:30:15.443Z,15.95
2019-03-10T08:33:04.925Z,16.00
2019-03-10T08:35:48.126Z,15.89
2019-03-10T08:38:37.315Z,15.77
2019-03-10T08:41:16.781Z,15.69
2019-03-10T08:44:09.943Z,15.64
2019-03-10T08:46:51.595Z,15.72
2019-03-10T08:49:31.645Z,15.76
2019-03-10T08:52:41.314Z,15.83
2019-03-10T08:55:31.636Z,16.04
2019-03-10T08:58:20.796Z,16.43
2019-03-10T09:01:20.179Z,16.49
2019-03-10T09:04:22.522Z,16.50
2019-03-10T09:07:31.256Z,16.42
2019-03-10T09:10:19.528Z,16.58
2019-03-10T09:13:25.152Z,16.83
2019-03-10T09:16:12.474Z,17.15
2019-03-10T09:18:57.656Z,17.14
2019-03-10T09:21:46.663Z,17.13
2019-03-10T09:24:36.095Z,17.16
2019-03-10T09:27:32.654Z,17.46
2019-03-10T09:30:36.972Z,17.72
2019-03-10T09:33:20.648Z,17.91
2019-03-10T09:36:09.963Z,18.09
2019-03-10T09:39:09.375Z,18.30
2019-03-10T09:41:57.060Z,18.56
2019-03-10T09:44:51.062Z,18.90
2019-03-10T09:47:40.092Z,18.80
2019-03-10T09:50:31.672Z,19.04
2019-03-10T09:53:20.702Z,19.36
2019-03-10T09:56:29.375Z,19.32
2019-03-10T09:59:18.486Z,19.50
2019-03-10T10:02:20.923Z,19.66
2019-03-10T10:04:59.459Z,19.81
2019-03-10T10:08:04.502Z,20.02
2019-03-10T10:11:01.187Z,19.82
2019-03-10T10:14:00.963Z,20.09
2019-03-10T10:17:00.230Z,20.14
2019-03-10T10:19:43.924Z,20.46
2019-03-10T10:22:35.330Z,20.57
2019-03-10T10:25:14.955Z,20.78
2019-03-10T10:28:09.446Z,20.62
2019-03-10T10:30:58.792Z,20.73
2019-03-10T10:34:04.857Z,20.85
2019-03-10T10:37:00.650Z,21.14
2019-03-10T10:39:44.028Z,21.21
2019-03-10T10:42:40.408Z,21.23
2019-03-10T10:45:28.689Z,21.21
2019-03-10T10:48:16.395Z,21.66
2019-03-10T10:51:12.674Z,21.78
2019-03-10T10:54:08.252Z,22.00
2019-03-10T10:56:57.189Z,22.13
2019-03-10T10:59:51.522Z,21.67
2019-03-10T11:02:42.600Z,21.77
2019-03-10T11:05:33.313Z,22.13
2019-03-10T11:08:42.146Z,22.16
2019-03-10T11:11:33.442Z,22.18
2019-03-10T11:14:29.800Z,22.02
2019-03-10T11:17:17.360Z,22.01
2019-03-10T11:20:07.864Z,21.83
2019-03-10T11:22:54.610Z,22.15
2019-03-10T11:25:47.990Z,22.08
2019-03-10T11:28:30.973Z,22.12
2019-03-10T11:31:34.194Z,22.09
2019-03-10T11:34:27.484Z,22.13
2019-03-10T11:37:35.671Z,22.29
2019-03-10T11:40:46.905Z,22.24
2019-03-10T11:43:47.624Z,22.46
2019-03-10T11:49:55.098Z,22.57
2019-03-10T11:52:46.594Z,22.47
2019-03-10T11:55:55.177Z,22.37
2019-03-10T11:58:57.615Z,22.26
2019-03-10T12:01:46.426Z,22.28
2019-03-10T12:04:52.054Z,22.16
2019-03-10T12:07:50.976Z,22.24
2019-03-10T12:10:22.771Z,22.10
2019-03-10T12:12:54.558Z,21.96
2019-03-10T12:15:26.336Z,21.96
2019-03-10T12:17:58.231Z,21.84
2019-03-10T12:20:30.183Z,21.66
2019-03-10T12:23:01.924Z,21.69
2019-03-10T12:25:33.596Z,21.33
2019-03-10T12:28:06.379Z,21.26
2019-03-10T12:30:38.091Z,20.99
2019-03-10T12:33:09.819Z,20.71
2019-03-10T12:35:41.788Z,20.57
2019-03-10T12:38:13.504Z,20.44
2019-03-10T12:40:45.313Z,20.17
2019-03-10T12:43:17.020Z,20.09
2019-03-10T12:45:48.791Z,20.03
2019-03-10T12:48:20.539Z,19.88
2019-03-10T12:50:52.348Z,19.71
2019-03-10T12:53:23.913Z,19.67
2019-03-10T12:55:55.596Z,19.57
2019-03-10T12:58:27.243Z,19.44
2019-03-10T13:01:06.221Z,19.36
2019-03-10T13:03:32.469Z,19.41
2019-03-10T13:06:04.392Z,19.27
2019-03-10T13:08:36.190Z,19.20
2019-03-10T13:11:08.031Z,19.13
2019-03-10T13:13:39.865Z,19.21
2019-03-10T13:16:12.944Z,19.14
2019-03-10T13:18:44.632Z,19.12
2019-03-10T13:21:16.329Z,19.16
2019-03-10T13:23:48.021Z,19.19
2019-03-10T13:26:26.438Z,19.17
2019-03-10T13:28:59.264Z,19.12
2019-03-10T13:31:31.472Z,19.05
2019-03-10T13:34:03.302Z,19.02
2019-03-10T13:36:35.681Z,18.96
2019-03-10T13:39:09.318Z,19.00
2019-03-10T13:41:42.704Z,18.95
2019-03-10T13:44:14.310Z,18.99
2019-03-10T13:46:45.990Z,18.87
2019-03-10T13:49:17.781Z,18.81
2019-03-10T13:51:49.509Z,18.81
2019-03-10T13:54:21.195Z,18.87
2019-03-10T13:56:52.968Z,18.88
2019-03-10T13:59:24.782Z,18.81
2019-03-10T14:01:56.670Z,18.76
2019-03-10T14:04:29.105Z,18.72
2019-03-10T14:07:00.879Z,18.73
2019-03-10T14:09:32.623Z,18.66
2019-03-10T14:12:04.396Z,18.66
2019-03-10T14:14:36.129Z,18.61
2019-03-10T14:17:08.121Z,18.64
2019-03-10T14:19:39.931Z,18.58
2019-03-10T14:22:11.618Z,18.56
2019-03-10T14:24:43.340Z,18.53
2019-03-10T14:27:15.212Z,18.50
2019-03-10T14:29:46.925Z,18.44
2019-03-10T14:32:18.580Z,18.45
2019-03-10T14:34:50.774Z,18.41
2019-03-10T14:37:22.474Z,18.39
2019-03-10T14:39:54.413Z,18.38
2019-03-10T14:42:26.144Z,18.27
2019-03-10T14:44:57.808Z,18.29
2019-03-10T14:55:34.507Z,18.20
2019-03-10T15:02:39.357Z,18.26
2019-03-10T15:05:12.698Z,18.17
2019-03-10T15:07:46.892Z,18.13
2019-03-10T15:11:52.538Z,18.15
2019-03-10T15:21:38.383Z,18.15
2019-03-10T15:25:16.168Z,18.22
2019-03-10T15:31:23.147Z,18.16
2019-03-10T15:33:54.779Z,18.06
2019-03-10T15:41:00.889Z,17.83
2019-03-10T15:43:39.617Z,17.72
2019-03-10T15:46:11.262Z,17.45
2019-03-10T15:48:43.061Z,17.35
2019-03-10T15:51:17.700Z,17.25
2019-03-10T15:53:51.889Z,17.11
2019-03-10T15:56:23.520Z,17.08
2019-03-10T15:58:55.328Z,17.01
2019-03-10T16:01:26.968Z,16.90
2019-03-10T16:04:32.443Z,16.90
2019-03-10T16:12:12.590Z,16.67
2019-03-10T16:14:55.187Z,16.50
2019-03-10T16:18:37.439Z,16.38
2019-03-10T16:21:09.137Z,16.34
2019-03-10T16:23:42.198Z,16.21
2019-03-10T16:26:14.228Z,16.16
2019-03-10T16:28:45.949Z,16.09
2019-03-10T16:31:17.891Z,16.09
2019-03-10T16:33:49.840Z,16.03
2019-03-10T16:36:21.622Z,15.92
2019-03-10T16:38:53.404Z,15.82
2019-03-10T16:41:25.192Z,15.84
2019-03-10T16:43:57.000Z,15.78
2019-03-10T16:46:29.975Z,15.77
2019-03-10T16:49:01.742Z,15.72
2019-03-10T16:52:02.244Z,15.68
2019-03-10T16:54:33.992Z,15.60
2019-03-10T16:57:09.483Z,15.59
2019-03-10T16:59:41.176Z,15.52
2019-03-10T17:02:12.999Z,15.51
2019-03-10T17:04:44.720Z,15.46
2019-03-10T17:07:16.379Z,15.44
2019-03-10T17:09:48.122Z,15.33
2019-03-10T17:12:19.755Z,15.30
2019-03-10T17:14:51.518Z,15.26
2019-03-10T17:17:23.212Z,15.19
2019-03-10T17:19:54.868Z,15.22
2019-03-10T17:22:26.513Z,15.14
2019-03-10T17:24:58.142Z,15.09
2019-03-10T17:27:29.950Z,15.00
2019-03-10T17:30:01.940Z,14.97
2019-03-10T17:32:33.859Z,14.91
2019-03-10T17:35:05.675Z,14.83
2019-03-10T17:37:37.400Z,14.69
2019-03-10T17:40:11.877Z,14.71
2019-03-10T17:42:43.735Z,14.67
2019-03-10T17:45:17.732Z,14.60
2019-03-10T17:47:49.404Z,14.54
2019-03-10T17:50:21.277Z,14.44
2019-03-10T17:52:53.118Z,14.45
2019-03-10T17:55:24.908Z,14.48
2019-03-10T17:57:56.537Z,14.32
2019-03-10T18:00:28.744Z,14.31
2019-03-10T18:03:00.394Z,14.27
2019-03-10T18:05:32.011Z,14.27
2019-03-10T18:08:03.678Z,14.19
2019-03-10T18:10:35.480Z,14.09
2019-03-10T18:13:07.036Z,13.88
2019-03-10T18:15:38.622Z,13.55
2019-03-10T18:18:10.174Z,13.51
2019-03-10T18:20:41.831Z,13.51
2019-03-10T18:23:13.347Z,13.52
2019-03-10T18:25:44.816Z,13.55
2019-03-10T18:28:16.337Z,13.55
2019-03-10T18:30:48.081Z,13.61
2019-03-10T18:33:19.768Z,13.67
2019-03-10T18:35:51.300Z,13.66
2019-03-10T18:38:23.560Z,13.70
2019-03-10T18:40:55.264Z,13.70
2019-03-10T18:43:26.851Z,13.71
2019-03-10T18:45:58.360Z,13.67
2019-03-10T18:48:29.944Z,13.70
2019-03-10T18:51:01.657Z,13.71
2019-03-10T18:53:33.326Z,13.62
2019-03-10T18:56:05.150Z,13.60
2019-03-10T18:58:36.811Z,13.60
2019-03-10T19:01:08.458Z,13.45
2019-03-10T19:03:40.091Z,13.47
2019-03-10T19:06:12.847Z,13.49
2019-03-10T19:08:44.430Z,13.34
2019-03-10T19:11:15.970Z,13.33
2019-03-10T19:13:47.562Z,13.31
2019-03-10T19:16:19.101Z,13.31
2019-03-10T19:18:50.800Z,13.23
2019-03-10T19:21:22.795Z,13.12
2019-03-10T19:23:54.360Z,13.13
2019-03-10T19:26:25.883Z,13.07
2019-03-10T19:28:57.413Z,13.07
2019-03-10T19:31:29.160Z,13.06
2019-03-10T19:34:00.738Z,12.98
2019-03-10T19:36:32.459Z,12.96
2019-03-10T19:39:05.300Z,12.98
2019-03-10T19:41:38.490Z,13.04
2019-03-10T19:44:10.100Z,13.00
2019-03-10T19:46:42.313Z,13.01
2019-03-10T19:49:15.390Z,12.94
2019-03-10T19:51:47.008Z,12.93
2019-03-10T19:54:18.818Z,13.00
2019-03-10T19:56:50.503Z,13.05
2019-03-10T19:59:22.163Z,13.09
2019-03-10T20:01:53.780Z,13.13
2019-03-10T20:04:25.304Z,13.18
2019-03-10T20:06:56.969Z,13.16
2019-03-10T20:09:28.528Z,13.16
2019-03-10T20:12:00.279Z,13.10
2019-03-10T20:14:34.088Z,13.06
2019-03-10T20:17:05.840Z,13.02
2019-03-10T20:19:37.542Z,12.96
2019-03-10T20:22:09.833Z,12.88
2019-03-10T20:24:44.757Z,12.86
2019-03-10T20:27:16.515Z,12.82
2019-03-10T20:29:48.607Z,12.77
2019-03-10T20:32:20.315Z,12.70
2019-03-10T20:34:51.917Z,12.76
2019-03-10T20:37:23.698Z,12.79
2019-03-10T20:39:56.999Z,12.84
2019-03-10T20:42:28.734Z,12.91
2019-03-10T20:45:00.438Z,12.93
2019-03-10T20:47:32.301Z,13.04
2019-03-10T20:50:04.000Z,13.09
2019-03-10T20:52:35.933Z,13.14
2019-03-10T20:55:09.418Z,13.21
2019-03-10T20:57:41.156Z,13.26
2019-03-10T21:00:15.380Z,13.33
2019-03-10T21:02:48.614Z,13.33
2019-03-10T21:05:20.301Z,13.38
2019-03-10T21:07:52.172Z,13.38
2019-03-10T21:10:23.631Z,13.40
2019-03-10T21:12:55.430Z,13.36
2019-03-10T21:15:27.141Z,13.38
2019-03-10T21:17:58.703Z,13.44
2019-03-10T21:20:35.057Z,13.45
2019-03-10T21:23:07.142Z,13.51
2019-03-10T21:25:38.913Z,13.58
2019-03-10T21:28:10.598Z,13.62
2019-03-10T21:30:42.070Z,13.62
2019-03-10T21:33:14.321Z,13.60
2019-03-10T21:35:47.321Z,13.61
2019-03-10T21:38:18.931Z,13.59
2019-03-10T21:40:50.712Z,13.60
2019-03-10T21:43:25.888Z,13.59
2019-03-10T21:45:58.019Z,13.56
2019-03-10T21:48:30.817Z,13.54
2019-03-10T21:51:02.565Z,13.56
2019-03-10T21:53:34.278Z,13.58
2019-03-10T21:56:05.870Z,13.57
2019-03-10T21:58:37.511Z,13.58
2019-03-10T22:01:09.127Z,13.54
2019-03-10T22:03:41.759Z,13.52
2019-03-10T22:06:13.403Z,13.50
2019-03-10T22:08:45.172Z,13.53
2019-03-10T22:11:16.856Z,13.52
2019-03-10T22:13:48.571Z,13.52
2019-03-10T22:16:20.386Z,13.54
2019-03-10T22:18:52.191Z,13.49
2019-03-10T22:21:23.863Z,13.51
2019-03-10T22:23:59.567Z,13.49
2019-03-10T22:26:29.020Z,13.46
2019-03-10T22:29:00.689Z,13.45
2019-03-10T22:31:32.219Z,13.40
2019-03-10T22:34:03.872Z,13.44
2019-03-10T22:36:35.590Z,13.44
2019-03-10T22:39:08.690Z,13.40
2019-03-10T22:41:40.382Z,13.37
2019-03-10T22:44:11.953Z,13.39
2019-03-10T22:46:43.650Z,13.42
2019-03-10T22:49:16.728Z,13.42
2019-03-10T22:51:48.584Z,13.43
2019-03-10T22:54:20.183Z,13.47
2019-03-10T22:56:51.822Z,13.49
2019-03-10T22:59:23.461Z,13.49
2019-03-10T23:01:55.190Z,13.51
2019-03-10T23:04:27.070Z,13.44
2019-03-10T23:06:58.725Z,13.37
2019-03-10T23:09:30.520Z,13.35
2019-03-10T23:12:02.164Z,13.32
2019-03-10T23:14:33.951Z,13.35
2019-03-10T23:17:05.613Z,13.35
2019-03-10T23:19:37.174Z,13.32
2019-03-10T23:22:08.883Z,13.29
2019-03-10T23:24:40.431Z,13.28
2019-03-10T23:27:12.096Z,13.27
2019-03-10T23:29:43.717Z,13.27
2019-03-10T23:32:15.408Z,13.24
2019-03-10T23:34:47.160Z,13.29
2019-03-10T23:37:18.760Z,13.29
2019-03-10T23:39:50.448Z,13.19
2019-03-10T23:42:22.318Z,13.20
2019-03-10T23:44:54.141Z,13.18
2019-03-10T23:47:25.883Z,13.20
2019-03-10T23:49:57.493Z,13.24
2019-03-10T23:52:29.726Z,13.24
2019-03-10T23:55:01.520Z,13.23
2019-03-10T23:57:35.409Z,13.25
